Time;durP1;ratioP1;P1;durP2;ratioP2;P2;SDS_P1;SDS_P2;PMS_P1;PMS_P2;Temp;Humidity;BMP_temperature;BMP_pressure;BME280_temperature;BME280_humidity;BME280_pressure;Samples;Min_cycle;Max_cycle;Signal;HPM_P1;HPM_P2
2022/10/27 00:00:55;;;;;;;10.35;3.67;;;;;;;17.90;62.25;101913.78;4951693;28;96901;-72
2022/10/27 00:03:21;;;;;;;8.80;4.07;;;;;;;17.65;62.81;101913.22;4952091;28;98509;-72
2022/10/27 00:05:48;;;;;;;8.35;4.20;;;;;;;17.59;62.95;101915.25;4952869;28;99373;-72
2022/10/27 00:08:17;;;;;;;11.88;4.40;;;;;;;17.54;63.29;101918.13;4950821;28;99286;-72
2022/10/27 00:10:45;;;;;;;6.63;4.03;;;;;;;17.74;62.67;101920.78;4950787;28;97480;-72
2022/10/27 00:13:12;;;;;;;6.68;4.28;;;;;;;17.58;63.07;101927.75;4951098;28;97095;-72
2022/10/27 00:15:39;;;;;;;7.38;4.00;;;;;;;17.29;63.87;101931.72;4950619;28;100309;-71
2022/10/27 00:18:10;;;;;;;5.78;4.18;;;;;;;17.64;62.85;101937.31;4949774;28;99144;-72
2022/10/27 00:20:37;;;;;;;10.82;4.22;;;;;;;17.51;63.26;101939.66;4952085;28;96915;-71
2022/10/27 00:23:04;;;;;;;8.52;4.03;;;;;;;17.47;63.27;101943.38;4951937;28;97106;-70
2022/10/27 00:25:30;;;;;;;9.02;3.90;;;;;;;17.52;63.25;101944.91;4952352;28;98970;-71
2022/10/27 00:27:58;;;;;;;7.28;3.65;;;;;;;17.51;63.24;101942.34;4948600;28;99982;-71
2022/10/27 00:30:24;;;;;;;7.63;4.10;;;;;;;17.58;62.99;101959.81;4952295;28;97063;-71
2022/10/27 00:32:50;;;;;;;9.93;4.45;;;;;;;17.39;63.45;101950.91;4952512;28;98053;-71
2022/10/27 00:35:17;;;;;;;8.80;4.88;;;;;;;17.30;63.62;101952.19;4950998;28;100878;-71
2022/10/27 00:37:43;;;;;;;12.10;4.18;;;;;;;17.52;63.26;101950.25;4953003;28;99150;-72
2022/10/27 00:40:11;;;;;;;10.35;4.07;;;;;;;17.19;64.09;101953.59;4955159;28;99029;-71
2022/10/27 00:42:37;;;;;;;14.88;5.03;;;;;;;17.35;63.83;101954.63;4950606;28;100565;-71
2022/10/27 00:45:06;;;;;;;9.63;3.85;;;;;;;17.39;63.50;101959.75;4951341;28;99209;-71
2022/10/27 00:47:35;;;;;;;9.68;4.35;;;;;;;17.36;63.59;101956.38;4953552;28;98844;-71
2022/10/27 00:50:05;;;;;;;9.95;4.13;;;;;;;17.34;63.90;101961.78;4950990;28;97100;-71
2022/10/27 00:52:35;;;;;;;11.50;4.18;;;;;;;17.46;63.32;101969.25;4952326;28;96797;-71
2022/10/27 00:55:05;;;;;;;10.55;4.38;;;;;;;17.44;63.54;101971.13;4953194;28;98855;-71
2022/10/27 00:57:33;;;;;;;11.15;4.75;;;;;;;17.61;62.76;101973.06;4950233;28;99060;-70
2022/10/27 01:00:02;;;;;;;11.40;3.97;;;;;;;17.25;63.87;101969.34;4949082;28;98592;-71
2022/10/27 01:02:30;;;;;;;9.13;4.20;;;;;;;17.39;63.48;101985.63;4951883;28;96973;-71
2022/10/27 01:05:01;;;;;;;8.07;3.97;;;;;;;17.07;64.47;101976.34;4951688;28;98943;-71
2022/10/27 01:07:28;;;;;;;10.90;4.05;;;;;;;17.34;63.60;101975.13;4950929;28;98992;-71
2022/10/27 01:09:55;;;;;;;6.43;3.95;;;;;;;17.36;63.61;101973.28;4951348;28;97116;-71
2022/10/27 01:12:22;;;;;;;6.97;4.47;;;;;;;17.42;63.48;101973.00;4951854;28;99267;-71
2022/10/27 01:14:48;;;;;;;8.80;4.05;;;;;;;17.39;63.72;101977.63;4950946;28;99298;-71
2022/10/27 01:17:28;;;;;;;8.55;4.40;;;;;;;17.52;63.10;101984.16;4949767;28;99045;-71
2022/10/27 01:20:23;;;;;;;9.65;4.45;;;;;;;17.24;64.10;101988.97;4951605;28;96944;-72
2022/10/27 01:22:59;;;;;;;10.20;4.30;;;;;;;17.27;64.02;101984.34;4946482;28;97272;-71
2022/10/27 01:26:04;;;;;;;7.60;4.28;;;;;;;17.36;63.69;101980.41;4952048;28;99339;-71
2022/10/27 01:28:58;;;;;;;8.15;4.57;;;;;;;17.28;64.08;101977.22;4948463;28;99116;-70
2022/10/27 01:31:29;;;;;;;6.20;4.15;;;;;;;17.30;63.82;101991.38;4949156;28;97767;-71
2022/10/27 01:34:00;;;;;;;13.48;4.28;;;;;;;17.16;64.36;101991.09;4949079;28;97805;-71
2022/10/27 01:36:34;;;;;;;9.25;3.90;;;;;;;17.27;63.90;101981.69;4948945;28;100350;-71
2022/10/27 01:39:06;;;;;;;13.05;4.50;;;;;;;17.12;64.56;101990.38;4957599;28;99115;-71
2022/10/27 01:41:37;;;;;;;8.48;4.47;;;;;;;17.20;64.17;101988.22;4955461;28;96791;-71
2022/10/27 01:44:08;;;;;;;11.73;4.45;;;;;;;17.46;63.33;101987.06;4952834;28;97172;-71
2022/10/27 01:46:36;;;;;;;9.00;4.13;;;;;;;17.44;63.27;101991.63;4951996;28;99100;-70
2022/10/27 01:49:05;;;;;;;15.85;4.95;;;;;;;17.45;63.47;101993.38;4952776;28;98796;-71
2022/10/27 01:51:31;;;;;;;17.02;4.22;;;;;;;17.62;62.82;101998.00;4952355;28;97780;-71
2022/10/27 01:53:58;;;;;;;7.65;4.53;;;;;;;17.56;63.02;101993.75;4952469;28;96913;-72
2022/10/27 01:56:41;;;;;;;7.40;4.63;;;;;;;17.46;63.25;101995.97;4952365;28;99003;-72
2022/10/27 01:59:32;;;;;;;6.43;4.18;;;;;;;17.49;63.01;101994.97;4952690;28;98829;-71
2022/10/27 02:02:10;;;;;;;11.70;5.05;;;;;;;17.32;63.45;101998.41;4954235;28;96919;-70
2022/10/27 02:04:46;;;;;;;11.82;4.88;;;;;;;17.53;62.65;102004.56;4954931;28;97604;-71
2022/10/27 02:07:20;;;;;;;9.00;4.22;;;;;;;17.65;62.09;102012.09;4954263;28;98286;-70
2022/10/27 02:09:52;;;;;;;10.85;4.72;;;;;;;17.60;62.10;102015.84;4952704;28;98925;-71
2022/10/27 02:12:24;;;;;;;9.10;4.43;;;;;;;17.43;62.25;102016.63;4952330;28;98003;-72
2022/10/27 02:14:53;;;;;;;9.57;4.63;;;;;;;17.31;62.57;102010.00;4952739;28;96911;-73
2022/10/27 02:17:25;;;;;;;7.70;4.43;;;;;;;17.31;62.08;102017.16;4955995;28;99295;-71
2022/10/27 02:19:54;;;;;;;9.35;4.30;;;;;;;17.27;62.55;102015.53;4953836;28;98254;-71
2022/10/27 02:22:25;;;;;;;8.13;4.18;;;;;;;16.99;63.24;102015.88;4955148;28;96967;-72
2022/10/27 02:24:51;;;;;;;10.98;4.18;;;;;;;16.83;63.69;102020.97;4953470;28;98579;-70
2022/10/27 02:27:27;;;;;;;11.27;4.82;;;;;;;16.82;63.50;102029.91;4945946;28;98350;-72
2022/10/27 02:29:58;;;;;;;8.05;4.75;;;;;;;16.72;63.96;102023.22;4950309;28;99040;-71
2022/10/27 02:32:28;;;;;;;7.03;4.50;;;;;;;16.88;63.42;102007.41;4951781;28;96861;-71
2022/10/27 02:34:57;;;;;;;9.93;4.53;;;;;;;16.85;63.67;102013.78;4953753;28;96910;-71
2022/10/27 02:37:29;;;;;;;11.15;4.22;;;;;;;17.09;62.97;102023.41;4954362;28;98962;-71
2022/10/27 02:39:55;;;;;;;13.43;4.60;;;;;;;16.78;63.94;102028.31;4947219;28;99308;-70
2022/10/27 02:42:21;;;;;;;7.00;4.78;;;;;;;16.59;64.70;102036.16;4949883;28;96820;-71
2022/10/27 02:44:48;;;;;;;5.50;4.00;;;;;;;16.60;64.58;102034.41;4954563;28;97141;-71
2022/10/27 02:47:14;;;;;;;12.05;4.35;;;;;;;16.74;64.21;102026.66;4951797;28;99356;-72
2022/10/27 02:49:43;;;;;;;7.63;4.53;;;;;;;17.04;63.75;102021.88;4954258;28;98930;-73
2022/10/27 02:52:09;;;;;;;12.00;5.28;;;;;;;16.81;64.29;102024.63;4954429;28;97131;-70
2022/10/27 02:54:36;;;;;;;16.15;5.03;;;;;;;16.92;63.91;102025.94;4954387;28;96723;-71
2022/10/27 02:57:02;;;;;;;7.90;4.45;;;;;;;16.98;63.51;102028.34;4954746;28;99234;-72
2022/10/27 02:59:28;;;;;;;11.55;5.13;;;;;;;16.90;63.86;102037.59;4951658;28;101731;-71
2022/10/27 03:01:55;;;;;;;6.55;4.70;;;;;;;16.99;63.74;102037.22;4954008;28;96891;-71
2022/10/27 03:04:21;;;;;;;17.35;5.57;;;;;;;16.89;64.40;102039.41;4954850;28;96856;-71
2022/10/27 03:06:49;;;;;;;14.05;5.35;;;;;;;17.13;63.47;102037.53;4954158;28;100238;-69
2022/10/27 03:09:15;;;;;;;6.60;4.85;;;;;;;17.22;63.17;102033.56;4951385;28;99269;-69
2022/10/27 03:11:42;;;;;;;10.60;4.63;;;;;;;17.08;63.06;102037.69;4952043;28;96745;-71
2022/10/27 03:14:08;;;;;;;8.60;4.47;;;;;;;17.13;63.19;102038.38;4953500;28;98641;-70
2022/10/27 03:16:35;;;;;;;8.05;4.53;;;;;;;16.83;63.33;102042.31;4948181;28;99372;-68
2022/10/27 03:19:01;;;;;;;10.55;4.75;;;;;;;16.84;63.40;102046.72;4951831;28;99067;-69
2022/10/27 03:21:27;;;;;;;12.57;4.65;;;;;;;16.48;64.13;102050.81;4951877;28;96901;-69
2022/10/27 03:23:55;;;;;;;8.50;5.00;;;;;;;16.44;64.69;102057.22;4956923;28;97429;-69
2022/10/27 03:26:22;;;;;;;27.88;5.35;;;;;;;16.47;64.66;102063.34;4951905;28;99067;-69
2022/10/27 03:28:48;;;;;;;15.18;5.35;;;;;;;16.71;63.76;102058.84;4953597;28;104157;-69
2022/10/27 03:31:14;;;;;;;9.02;4.63;;;;;;;16.64;64.07;102066.22;4953086;28;97487;-69
2022/10/27 03:33:41;;;;;;;12.57;5.28;;;;;;;16.64;63.88;102060.88;4950351;28;97024;-69
2022/10/27 03:36:10;;;;;;;8.15;4.70;;;;;;;16.69;63.82;102066.91;4950826;28;101784;-69
2022/10/27 03:38:36;;;;;;;15.45;5.53;;;;;;;16.77;63.40;102071.94;4951190;28;99074;-69
2022/10/27 03:41:04;;;;;;;9.48;5.10;;;;;;;16.56;63.83;102070.94;4950366;28;97699;-69
2022/10/27 03:43:31;;;;;;;8.95;5.20;;;;;;;16.45;64.14;102073.19;4951053;28;98944;-70
2022/10/27 03:45:57;;;;;;;7.18;4.90;;;;;;;16.22;64.73;102070.50;4950908;28;100876;-70
2022/10/27 03:48:23;;;;;;;7.72;4.45;;;;;;;16.17;65.08;102077.81;4952265;28;98873;-70
2022/10/27 03:50:51;;;;;;;12.63;6.93;;;;;;;16.60;63.88;102071.75;4952498;28;96845;-69
2022/10/27 03:53:18;;;;;;;11.25;5.47;;;;;;;16.42;64.26;102091.09;4950127;28;97302;-69
2022/10/27 03:55:44;;;;;;;8.52;5.30;;;;;;;16.49;64.48;102082.78;4952587;28;99336;-70
2022/10/27 03:58:14;;;;;;;12.23;5.22;;;;;;;16.31;64.57;102084.38;4951070;28;98991;-70
2022/10/27 04:00:41;;;;;;;10.57;5.57;;;;;;;16.49;63.79;102085.47;4953058;28;96876;-70
2022/10/27 04:03:08;;;;;;;8.85;5.20;;;;;;;16.60;63.70;102077.09;4950798;28;97513;-69
2022/10/27 04:05:34;;;;;;;8.40;5.18;;;;;;;16.33;64.26;102090.53;4948280;28;99432;-69
2022/10/27 04:08:01;;;;;;;10.88;4.90;;;;;;;16.57;63.54;102094.03;4953393;28;101335;-69
2022/10/27 04:10:27;;;;;;;12.35;5.07;;;;;;;16.23;64.35;102094.47;4951987;28;97813;-69
2022/10/27 04:12:56;;;;;;;12.10;5.15;;;;;;;16.21;64.24;102100.81;4951007;28;96872;-70
2022/10/27 04:15:25;;;;;;;13.50;5.15;;;;;;;16.43;63.79;102100.84;4951516;28;98226;-69
2022/10/27 04:17:53;;;;;;;9.93;5.82;;;;;;;16.52;63.46;102105.84;4949926;28;99173;-70
2022/10/27 04:20:19;;;;;;;12.60;4.90;;;;;;;16.35;63.94;102102.00;4951975;28;96790;-69
2022/10/27 04:22:45;;;;;;;10.77;5.40;;;;;;;16.31;64.13;102112.84;4950559;28;96975;-70
2022/10/27 04:25:12;;;;;;;19.80;6.28;;;;;;;16.24;64.32;102116.66;4950924;28;99427;-70
2022/10/27 04:27:38;;;;;;;10.30;5.70;;;;;;;16.33;64.33;102114.53;4947765;28;98854;-69
2022/10/27 04:30:05;;;;;;;10.13;5.60;;;;;;;16.22;64.75;102123.84;4949826;28;97577;-70
2022/10/27 04:32:33;;;;;;;11.25;5.60;;;;;;;16.59;63.62;102129.56;4949408;28;97066;-70
2022/10/27 04:35:00;;;;;;;14.73;5.93;;;;;;;16.63;63.76;102133.00;4950298;28;99422;-69
2022/10/27 04:37:26;;;;;;;12.40;6.13;;;;;;;16.57;64.44;102127.88;4952949;28;101045;-69
2022/10/27 04:39:53;;;;;;;12.05;6.00;;;;;;;16.67;64.79;102129.28;4956129;28;96973;-71
2022/10/27 04:42:19;;;;;;;15.52;6.25;;;;;;;16.50;65.37;102129.03;4952464;28;96901;-69
2022/10/27 04:44:46;;;;;;;15.07;6.25;;;;;;;16.68;65.14;102128.34;4950950;28;98951;-70
2022/10/27 04:47:12;;;;;;;12.02;5.82;;;;;;;16.38;65.91;102126.81;4950543;28;97641;-70
2022/10/27 04:49:40;;;;;;;14.52;7.05;;;;;;;16.55;65.57;102135.03;4953067;28;96740;-70
2022/10/27 04:52:06;;;;;;;14.00;6.72;;;;;;;16.40;65.80;102132.97;4954068;28;98726;-70
2022/10/27 04:54:33;;;;;;;10.95;6.20;;;;;;;16.78;64.85;102128.88;4950670;28;100842;-70
2022/10/27 04:57:00;;;;;;;9.52;6.25;;;;;;;16.51;65.36;102139.66;4953451;28;101503;-69
2022/10/27 04:59:26;;;;;;;13.05;6.68;;;;;;;16.38;65.70;102138.38;4951208;28;96785;-69
2022/10/27 05:01:52;;;;;;;12.00;5.35;;;;;;;16.64;65.17;102148.97;4949963;28;96944;-69
2022/10/27 05:04:19;;;;;;;17.27;6.15;;;;;;;16.59;65.24;102153.56;4953913;28;98233;-68
2022/10/27 05:06:47;;;;;;;15.40;5.75;;;;;;;16.45;65.78;102147.88;4951863;28;98993;-69
2022/10/27 05:09:13;;;;;;;9.30;5.47;;;;;;;16.54;65.81;102154.69;4952500;28;97141;-70
2022/10/27 05:11:40;;;;;;;12.15;6.03;;;;;;;16.35;66.17;102150.00;4952041;28;99349;-69
2022/10/27 05:14:06;;;;;;;22.52;6.50;;;;;;;16.31;66.45;102145.72;4952172;28;96926;-69
2022/10/27 05:16:32;;;;;;;14.05;6.05;;;;;;;16.51;66.03;102157.44;4952511;28;98866;-70
2022/10/27 05:18:59;;;;;;;9.05;5.65;;;;;;;16.43;65.98;102162.19;4948073;28;98504;-70
2022/10/27 05:21:25;;;;;;;14.38;6.88;;;;;;;16.44;66.04;102162.16;4947467;28;97804;-70
2022/10/27 05:23:53;;;;;;;12.73;6.65;;;;;;;16.41;66.18;102166.75;4951051;28;99077;-69
2022/10/27 05:26:19;;;;;;;11.10;6.32;;;;;;;16.50;66.28;102166.38;4953566;28;99181;-70
2022/10/27 05:28:47;;;;;;;9.10;5.75;;;;;;;16.39;66.08;102171.25;4951627;28;98845;-70
2022/10/27 05:31:17;;;;;;;10.38;6.47;;;;;;;16.37;66.32;102171.31;4950532;28;97662;-70
2022/10/27 05:33:43;;;;;;;12.65;5.95;;;;;;;16.49;65.84;102177.97;4953597;28;97802;-69
2022/10/27 05:36:10;;;;;;;12.88;6.13;;;;;;;16.35;66.07;102174.03;4950458;28;99186;-70
2022/10/27 05:38:37;;;;;;;12.85;7.03;;;;;;;16.53;65.89;102182.28;4953873;28;97485;-69
2022/10/27 05:41:05;;;;;;;15.20;7.13;;;;;;;16.49;65.88;102181.50;4950961;28;97021;-69
2022/10/27 05:43:31;;;;;;;14.50;6.63;;;;;;;16.76;65.27;102187.63;4940209;28;97605;-70
2022/10/27 05:45:58;;;;;;;16.38;7.00;;;;;;;16.49;65.58;102177.97;4935981;28;98969;-69
2022/10/27 05:48:24;;;;;;;9.25;6.40;;;;;;;16.58;65.30;102186.50;4936893;28;97497;-71
2022/10/27 05:50:54;;;;;;;10.30;6.05;;;;;;;16.49;65.48;102191.31;4935196;28;96817;-70
2022/10/27 05:53:21;;;;;;;13.77;5.88;;;;;;;16.52;65.34;102185.88;4936640;28;99186;-70
2022/10/27 05:55:49;;;;;;;16.85;6.45;;;;;;;16.18;66.07;102186.25;4934173;28;99434;-70
2022/10/27 05:58:17;;;;;;;12.70;5.80;;;;;;;16.57;65.04;102179.44;4934593;28;96974;-69
2022/10/27 06:00:44;;;;;;;10.48;6.40;;;;;;;16.67;65.02;102185.34;4934096;28;97888;-70
2022/10/27 06:03:18;;;;;;;12.25;6.45;;;;;;;16.39;65.01;102181.94;4932407;28;97884;-69
2022/10/27 06:05:45;;;;;;;10.90;6.95;;;;;;;16.34;65.46;102177.59;4927964;28;99762;-69
2022/10/27 06:08:11;;;;;;;13.90;6.57;;;;;;;16.30;65.18;102180.44;4933138;28;97257;-70
2022/10/27 06:10:38;;;;;;;13.32;7.05;;;;;;;16.72;64.25;102183.34;4932360;28;97030;-70
2022/10/27 06:13:05;;;;;;;11.90;6.30;;;;;;;16.31;64.43;102183.06;4931580;28;100462;-69
2022/10/27 06:15:34;;;;;;;14.27;7.05;;;;;;;16.41;64.86;102182.75;4930406;28;99130;-68
2022/10/27 06:18:01;;;;;;;14.60;6.20;;;;;;;16.61;64.55;102181.06;4932349;28;97232;-71
2022/10/27 06:20:28;;;;;;;14.27;6.20;;;;;;;16.44;65.52;102193.28;4931741;28;97329;-70
2022/10/27 06:22:54;;;;;;;10.18;6.30;;;;;;;16.58;65.10;102196.31;4931684;28;99462;-70
2022/10/27 06:25:21;;;;;;;15.50;6.53;;;;;;;16.70;64.12;102190.53;4929618;28;102269;-70
2022/10/27 06:27:47;;;;;;;7.55;5.60;;;;;;;16.91;63.73;102197.75;4933610;28;96794;-69
2022/10/27 06:30:13;;;;;;;18.70;7.25;;;;;;;16.98;63.63;102196.56;4933226;28;97210;-69
2022/10/27 06:32:41;;;;;;;12.25;6.38;;;;;;;16.83;63.66;102206.97;4932237;28;99010;-69
2022/10/27 06:35:09;;;;;;;12.52;6.47;;;;;;;16.68;64.12;102200.41;4929972;28;99426;-70
2022/10/27 06:37:37;;;;;;;14.52;6.38;;;;;;;16.71;64.23;102206.50;4931673;28;97393;-71
2022/10/27 06:40:05;;;;;;;13.10;6.70;;;;;;;16.83;63.71;102205.16;4936027;28;96875;-71
2022/10/27 06:42:34;;;;;;;12.63;6.07;;;;;;;16.71;63.76;102203.84;4932484;28;99169;-70
2022/10/27 06:48:00;;;;;;;11.27;6.07;;;;;;;16.89;63.79;102210.25;4923524;28;96951;-71
2022/10/27 06:50:27;;;;;;;12.25;6.60;;;;;;;16.84;64.38;102206.91;4935486;28;96813;-70
2022/10/27 06:52:53;;;;;;;15.95;6.78;;;;;;;17.04;63.85;102216.81;4934584;28;99274;-70
2022/10/27 06:55:20;;;;;;;11.40;6.53;;;;;;;16.87;64.45;102213.94;4934751;28;99960;-70
2022/10/27 06:57:46;;;;;;;14.73;6.78;;;;;;;17.07;63.81;102222.91;4932802;28;96867;-70
2022/10/27 07:00:14;;;;;;;13.82;6.82;;;;;;;16.85;64.27;102223.81;4934825;28;97247;-71
2022/10/27 07:02:40;;;;;;;19.30;7.75;;;;;;;17.01;64.12;102224.94;4935032;28;97741;-70
2022/10/27 07:05:09;;;;;;;13.75;7.18;;;;;;;17.22;63.74;102220.56;4934648;28;98279;-70
2022/10/27 07:07:36;;;;;;;13.73;6.93;;;;;;;17.56;62.39;102233.44;4932181;28;96737;-70
2022/10/27 07:10:05;;;;;;;15.73;7.15;;;;;;;17.45;62.60;102234.75;4934247;28;96995;-72
2022/10/27 07:12:33;;;;;;;12.93;6.10;;;;;;;17.48;62.77;102236.41;4934084;28;97831;-72
2022/10/27 07:15:00;;;;;;;20.50;7.88;;;;;;;17.52;62.36;102235.38;4933558;28;99148;-72
2022/10/27 07:17:26;;;;;;;12.90;6.35;;;;;;;17.73;62.27;102230.94;4935569;28;96757;-71
2022/10/27 07:19:53;;;;;;;21.05;7.18;;;;;;;17.76;62.38;102233.50;4934909;28;96807;-72
2022/10/27 07:22:20;;;;;;;18.08;8.13;;;;;;;17.84;62.23;102231.38;4934757;28;99006;-72
2022/10/27 07:24:47;;;;;;;12.00;6.90;;;;;;;17.87;62.49;102237.47;4935285;28;99006;-72
2022/10/27 07:27:13;;;;;;;20.55;7.68;;;;;;;17.87;62.40;102242.81;4935088;28;96946;-73
2022/10/27 07:29:40;;;;;;;14.55;6.72;;;;;;;18.03;62.34;102237.69;4935276;28;96921;-72
2022/10/27 07:32:06;;;;;;;9.25;5.43;;;;;;;18.08;61.96;102240.16;4933369;28;101599;-73
2022/10/27 07:34:33;;;;;;;19.95;6.60;;;;;;;18.37;61.44;102236.22;4931319;28;99211;-72
2022/10/27 07:37:00;;;;;;;16.30;6.68;;;;;;;18.57;60.63;102238.91;4934077;28;96834;-73
2022/10/27 07:39:27;;;;;;;13.52;6.30;;;;;;;18.46;61.15;102242.00;4935171;28;96821;-72
2022/10/27 07:41:54;;;;;;;12.57;6.57;;;;;;;18.70;60.13;102243.63;4934388;28;99589;-72
2022/10/27 07:44:23;;;;;;;9.13;5.93;;;;;;;18.92;59.59;102251.53;4934213;28;98888;-73
2022/10/27 07:46:50;;;;;;;12.57;6.40;;;;;;;18.96;59.37;102258.50;4932834;28;96785;-72
2022/10/27 07:49:17;;;;;;;9.90;5.53;;;;;;;19.04;58.71;102244.72;4934260;28;96901;-72
2022/10/27 07:51:43;;;;;;;13.07;6.60;;;;;;;19.05;58.86;102247.31;4930568;28;98959;-72
2022/10/27 07:54:10;;;;;;;10.45;6.32;;;;;;;19.05;58.91;102250.00;4933505;28;99362;-72
2022/10/27 07:56:38;;;;;;;20.48;6.47;;;;;;;19.34;58.89;102250.44;4933690;28;96757;-72
2022/10/27 07:59:05;;;;;;;9.48;5.93;;;;;;;19.19;58.91;102248.47;4934142;28;96864;-73
2022/10/27 08:01:31;;;;;;;12.63;6.50;;;;;;;19.37;58.24;102255.63;4932299;28;99042;-73
2022/10/27 08:03:58;;;;;;;12.80;5.88;;;;;;;19.38;58.58;102260.06;4918929;28;100804;-72
2022/10/27 08:06:24;;;;;;;11.82;6.38;;;;;;;19.46;57.95;102258.78;4931469;28;96961;-72
2022/10/27 08:08:51;;;;;;;8.02;5.80;;;;;;;19.46;57.91;102257.91;4931384;28;97311;-72
2022/10/27 08:11:17;;;;;;;18.20;6.05;;;;;;;19.54;58.03;102260.22;4931903;28;99016;-72
2022/10/27 08:13:45;;;;;;;14.02;6.35;;;;;;;19.62;58.07;102255.38;4930212;28;101996;-72
2022/10/27 08:16:12;;;;;;;13.00;6.10;;;;;;;19.52;58.29;102254.06;4927305;28;96809;-73
2022/10/27 08:18:38;;;;;;;12.55;5.78;;;;;;;19.50;58.42;102272.91;4930809;28;98735;-73
2022/10/27 08:21:05;;;;;;;11.32;5.60;;;;;;;19.35;58.82;102266.47;4929936;28;99412;-72
2022/10/27 08:23:31;;;;;;;9.85;5.20;;;;;;;19.73;57.73;102267.28;4931050;28;98950;-73
2022/10/27 08:25:58;;;;;;;13.60;6.03;;;;;;;19.80;57.70;102270.53;4930899;28;96864;-73
2022/10/27 08:28:25;;;;;;;10.52;6.05;;;;;;;19.78;58.02;102269.72;4933435;28;97285;-72
2022/10/27 08:30:53;;;;;;;19.85;7.00;;;;;;;19.84;57.47;102275.66;4930486;28;99420;-73
2022/10/27 08:33:20;;;;;;;13.10;5.60;;;;;;;19.91;57.14;102273.53;4931201;28;97636;-73
2022/10/27 08:35:46;;;;;;;12.57;6.22;;;;;;;20.05;57.17;102283.56;4928216;28;97173;-72
2022/10/27 08:38:15;;;;;;;17.58;5.97;;;;;;;20.10;57.21;102281.50;4931378;28;97195;-73
2022/10/27 08:40:51;;;;;;;16.08;5.90;;;;;;;20.22;56.63;102280.88;4931605;28;99089;-73
2022/10/27 08:43:38;;;;;;;13.13;5.30;;;;;;;20.09;56.70;102285.13;4931013;28;97586;-73
2022/10/27 08:46:14;;;;;;;11.45;6.18;;;;;;;20.26;56.11;102280.66;4929537;28;97052;-73
2022/10/27 08:48:43;;;;;;;16.95;6.05;;;;;;;20.41;55.79;102281.72;4932071;28;97302;-75
2022/10/27 08:51:14;;;;;;;18.48;6.18;;;;;;;20.49;55.99;102281.28;4931538;28;99254;-75
2022/10/27 08:53:44;;;;;;;20.83;6.07;;;;;;;20.71;55.60;102278.34;4931072;28;101834;-72
2022/10/27 08:56:11;;;;;;;19.13;8.30;;;;;;;21.05;54.27;102284.50;4929022;28;97432;-74
2022/10/27 08:58:40;;;;;;;14.88;8.60;;;;;;;20.92;54.59;102287.94;4932246;28;97239;-73
2022/10/27 09:01:20;;;;;;;12.45;5.63;;;;;;;20.80;54.81;102289.47;4931042;28;98428;-73
2022/10/27 09:04:05;;;;;;;13.15;5.45;;;;;;;20.98;54.59;102291.16;4927850;28;97824;-72
2022/10/27 09:06:37;;;;;;;10.85;5.57;;;;;;;21.09;54.41;102295.94;4928682;28;97108;-73
2022/10/27 09:09:12;;;;;;;13.32;6.80;;;;;;;21.12;54.15;102298.47;4930415;28;96931;-72
2022/10/27 09:11:47;;;;;;;15.80;5.30;;;;;;;21.26;54.07;102298.59;4931806;28;99301;-73
2022/10/27 09:14:27;;;;;;;21.15;5.55;;;;;;;21.27;53.80;102294.94;4929217;28;99159;-72
2022/10/27 09:17:00;;;;;;;13.35;5.53;;;;;;;21.16;54.04;102283.06;4929506;28;97191;-73
2022/10/27 09:19:31;;;;;;;14.13;4.82;;;;;;;21.32;53.53;102284.81;4930438;28;98575;-73
2022/10/27 09:21:59;;;;;;;15.10;5.03;;;;;;;21.37;53.86;102287.25;4931668;28;99186;-72
2022/10/27 09:24:30;;;;;;;16.42;7.70;;;;;;;21.38;54.09;102286.28;4922684;28;99621;-72
2022/10/27 09:26:59;;;;;;;13.98;6.32;;;;;;;21.46;53.99;102289.41;4931298;28;97170;-72
2022/10/27 09:29:29;;;;;;;12.55;5.47;;;;;;;21.77;52.96;102275.06;4931547;28;97529;-74
2022/10/27 09:32:00;;;;;;;13.57;4.65;;;;;;;21.72;52.95;102280.72;4930026;28;102104;-76
2022/10/27 09:34:30;;;;;;;15.25;5.30;;;;;;;22.09;52.32;102284.84;4928935;28;101378;-73
2022/10/27 09:36:57;;;;;;;13.95;5.35;;;;;;;21.99;51.98;102280.94;4932087;28;96818;-73
2022/10/27 09:39:24;;;;;;;12.95;4.15;;;;;;;22.24;51.75;102286.63;4931670;28;96934;-74
2022/10/27 09:41:50;;;;;;;7.50;4.38;;;;;;;22.29;51.84;102286.31;4930661;28;97169;-73
2022/10/27 09:44:19;;;;;;;11.98;4.80;;;;;;;22.39;51.29;102278.53;4930162;28;101189;-74
2022/10/27 09:46:50;;;;;;;12.38;4.10;;;;;;;22.21;51.63;102276.00;4931050;28;96756;-72
2022/10/27 09:49:19;;;;;;;12.02;4.30;;;;;;;21.97;52.07;102285.56;4925446;28;96796;-72
2022/10/27 09:51:49;;;;;;;8.00;4.18;;;;;;;22.24;51.62;102283.06;4930430;28;97755;-73
2022/10/27 09:54:38;;;;;;;9.43;4.25;;;;;;;22.33;51.65;102279.78;4927242;28;99242;-73
2022/10/27 09:57:07;;;;;;;11.57;3.85;;;;;;;22.17;51.93;102282.56;4926678;28;96876;-73
2022/10/27 09:59:36;;;;;;;25.58;6.47;;;;;;;22.44;51.57;102279.16;4934760;28;96942;-74
2022/10/27 10:02:04;;;;;;;9.48;4.00;;;;;;;22.52;50.76;102279.53;4933746;28;99514;-72
2022/10/27 10:04:35;;;;;;;10.07;3.40;;;;;;;22.61;51.04;102277.16;4931666;28;97739;-73
2022/10/27 10:07:03;;;;;;;8.85;3.60;;;;;;;22.69;51.08;102273.13;4931793;28;96912;-73
2022/10/27 10:09:32;;;;;;;8.85;3.80;;;;;;;22.73;50.35;102280.06;4934956;28;96941;-72
2022/10/27 10:12:17;;;;;;;13.90;4.53;;;;;;;22.65;51.01;102277.81;4930751;28;99086;-72
2022/10/27 10:14:44;;;;;;;10.27;4.13;;;;;;;23.02;50.31;102274.59;4931932;28;99163;-73
2022/10/27 10:17:20;;;;;;;12.90;3.42;;;;;;;22.95;50.12;102277.75;4933770;28;97648;-74
2022/10/27 10:19:48;;;;;;;10.77;3.90;;;;;;;22.93;49.95;102275.16;4933609;28;97054;-71
2022/10/27 10:22:21;;;;;;;5.05;3.55;;;;;;;22.88;50.08;102279.13;4924874;28;99576;-73
2022/10/27 10:24:48;;;;;;;13.13;3.72;;;;;;;23.31;49.07;102277.22;4930982;28;101279;-71
2022/10/27 10:27:26;;;;;;;14.25;3.28;;;;;;;23.30;49.04;102279.06;4934288;28;96734;-73
2022/10/27 10:29:52;;;;;;;8.38;3.03;;;;;;;23.23;49.73;102282.28;4932183;28;96938;-73
2022/10/27 10:32:23;;;;;;;11.23;3.28;;;;;;;23.11;49.86;102281.19;4932649;28;99302;-73
2022/10/27 10:34:54;;;;;;;9.52;3.05;;;;;;;23.18;49.70;102282.53;4929914;28;97630;-74
2022/10/27 10:37:33;;;;;;;10.52;3.75;;;;;;;23.26;49.26;102269.44;4929038;28;97192;-72
2022/10/27 10:40:24;;;;;;;7.47;3.40;;;;;;;23.33;49.04;102278.00;4933990;28;97828;-73
2022/10/27 10:43:01;;;;;;;9.07;3.42;;;;;;;23.18;49.44;102277.16;4932222;28;98236;-73
2022/10/27 10:45:29;;;;;;;14.27;3.20;;;;;;;23.08;50.07;102275.16;4932581;28;99013;-73
2022/10/27 10:47:59;;;;;;;6.70;2.88;;;;;;;23.14;49.78;102264.84;4934022;28;97108;-73
2022/10/27 10:50:27;;;;;;;9.07;3.28;;;;;;;23.13;49.75;102268.50;4933722;28;96904;-73
2022/10/27 10:52:57;;;;;;;14.05;3.55;;;;;;;23.50;49.09;102271.56;4926822;28;99203;-73
2022/10/27 10:55:28;;;;;;;18.00;3.33;;;;;;;23.31;49.45;102274.53;4931020;28;99279;-73
2022/10/27 10:57:57;;;;;;;9.02;3.20;;;;;;;23.12;49.87;102266.75;4933167;28;96858;-73
2022/10/27 11:00:24;;;;;;;13.27;3.50;;;;;;;23.18;49.80;102270.88;4933953;28;96918;-73
2022/10/27 11:02:53;;;;;;;9.57;3.15;;;;;;;23.33;49.31;102265.38;4931442;28;99402;-73
2022/10/27 11:05:23;;;;;;;9.38;2.80;;;;;;;23.22;49.89;102273.31;4930671;28;97688;-73
2022/10/27 11:07:51;;;;;;;8.55;3.35;;;;;;;23.18;50.07;102268.19;4930916;28;96809;-73
2022/10/27 11:10:24;;;;;;;11.02;3.10;;;;;;;23.05;49.72;102265.41;4932413;28;97590;-73
2022/10/27 11:12:54;;;;;;;11.23;3.97;;;;;;;23.26;49.73;102263.19;4933050;28;98154;-74
2022/10/27 11:15:27;;;;;;;8.63;2.85;;;;;;;23.21;49.88;102263.50;4930890;28;99328;-73
2022/10/27 11:17:57;;;;;;;10.48;2.83;;;;;;;23.43;49.64;102249.47;4932915;28;96866;-73
2022/10/27 11:20:26;;;;;;;12.05;3.35;;;;;;;23.55;49.41;102254.09;4931774;28;96876;-73
2022/10/27 11:22:55;;;;;;;9.20;2.50;;;;;;;23.34;49.63;102260.84;4932369;28;99192;-73
2022/10/27 11:25:26;;;;;;;12.90;3.47;;;;;;;23.45;49.99;102242.13;4927634;28;98744;-73
2022/10/27 11:28:03;;;;;;;9.07;2.83;;;;;;;23.51;49.30;102249.84;4933120;28;96802;-73
2022/10/27 11:30:29;;;;;;;13.48;2.47;;;;;;;23.64;49.13;102248.06;4930961;28;97371;-74